createdAt,value
2019-05-26T00:01:43.951Z,14.40
2019-05-26T00:04:14.182Z,14.40
2019-05-26T00:06:44.404Z,14.40
2019-05-26T00:09:14.731Z,14.50
2019-05-26T00:11:45.362Z,14.50
2019-05-26T00:14:16.451Z,14.40
2019-05-26T00:16:46.794Z,14.50
2019-05-26T00:19:17.017Z,14.50
2019-05-26T00:21:47.231Z,14.50
2019-05-26T00:24:17.457Z,14.50
2019-05-26T00:26:47.735Z,14.40
2019-05-26T00:29:18.930Z,14.30
2019-05-26T00:31:49.096Z,14.20
2019-05-26T00:34:19.498Z,14.10
2019-05-26T00:36:49.631Z,14.00
2019-05-26T00:39:19.864Z,13.70
2019-05-26T00:41:50.214Z,13.50
2019-05-26T00:44:20.355Z,13.50
2019-05-26T00:46:50.596Z,13.40
2019-05-26T00:49:20.855Z,13.30
2019-05-26T00:51:51.030Z,13.20
2019-05-26T00:54:21.418Z,13.30
2019-05-26T00:56:51.628Z,13.20
2019-05-26T00:59:21.845Z,13.30
2019-05-26T01:01:52.014Z,13.30
2019-05-26T01:04:22.174Z,13.20
2019-05-26T01:06:52.408Z,13.30
2019-05-26T01:09:23.756Z,13.30
2019-05-26T01:11:53.974Z,13.40
2019-05-26T01:14:24.395Z,13.50
2019-05-26T01:16:56.016Z,13.60
2019-05-26T01:19:27.490Z,13.50
2019-05-26T01:21:57.974Z,13.30
2019-05-26T01:24:28.195Z,13.10
2019-05-26T01:26:58.370Z,13.10
2019-05-26T01:29:28.555Z,13.20
2019-05-26T01:31:58.724Z,13.20
2019-05-26T01:34:28.934Z,13.20
2019-05-26T01:36:59.356Z,13.30
2019-05-26T01:39:29.786Z,13.10
2019-05-26T01:42:00.011Z,12.80
2019-05-26T01:44:30.245Z,12.60
2019-05-26T01:47:00.453Z,12.50
2019-05-26T01:49:30.822Z,12.50
2019-05-26T01:52:00.998Z,12.50
2019-05-26T01:54:31.117Z,12.60
2019-05-26T01:57:01.443Z,12.70
2019-05-26T01:59:31.680Z,12.70
2019-05-26T02:02:01.798Z,12.60
2019-05-26T02:04:32.020Z,12.50
2019-05-26T02:07:02.292Z,12.50
2019-05-26T02:09:32.462Z,12.40
2019-05-26T02:12:02.789Z,12.50
2019-05-26T02:14:33.739Z,12.40
2019-05-26T02:17:04.255Z,12.40
2019-05-26T02:19:34.563Z,12.50
2019-05-26T02:22:05.234Z,12.60
2019-05-26T02:24:35.282Z,12.60
2019-05-26T02:27:05.433Z,12.60
2019-05-26T02:29:35.718Z,12.40
2019-05-26T02:32:05.982Z,12.30
2019-05-26T02:34:36.203Z,12.20
2019-05-26T02:37:06.429Z,12.10
2019-05-26T02:39:36.617Z,12.10
2019-05-26T02:42:07.030Z,12.10
2019-05-26T02:44:37.295Z,12.20
2019-05-26T02:47:07.512Z,12.30
2019-05-26T02:49:37.611Z,12.30
2019-05-26T02:52:07.772Z,12.40
2019-05-26T02:54:38.127Z,12.40
2019-05-26T02:57:08.216Z,12.50
2019-05-26T02:59:38.423Z,12.60
2019-05-26T03:02:08.635Z,12.50
2019-05-26T03:04:40.300Z,12.30
2019-05-26T03:07:11.901Z,12.10
2019-05-26T03:09:44.295Z,12.00
2019-05-26T03:12:15.820Z,11.80
2019-05-26T03:14:47.913Z,12.00
2019-05-26T03:17:21.441Z,12.10
2019-05-26T03:19:53.219Z,12.10
2019-05-26T03:22:26.216Z,12.20
2019-05-26T03:24:57.223Z,12.20
2019-05-26T03:27:27.469Z,12.20
2019-05-26T03:29:57.793Z,12.30
2019-05-26T03:32:27.984Z,12.30
2019-05-26T03:35:17.203Z,12.40
2019-05-26T03:37:48.507Z,12.20
2019-05-26T03:40:20.041Z,12.20
2019-05-26T03:42:49.975Z,12.30
2019-05-26T03:45:27.195Z,12.20
2019-05-26T03:47:58.088Z,12.20
2019-05-26T03:50:28.194Z,12.20
2019-05-26T03:52:58.075Z,12.20
2019-05-26T03:55:28.715Z,12.30
2019-05-26T03:57:58.655Z,12.30
2019-05-26T04:00:28.514Z,12.20
2019-05-26T04:02:58.461Z,12.30
2019-05-26T04:05:28.563Z,12.30
2019-05-26T04:08:04.054Z,12.30
2019-05-26T04:10:30.938Z,12.40
2019-05-26T04:13:00.779Z,12.50
2019-05-26T04:15:30.618Z,12.60
2019-05-26T04:18:00.537Z,12.40
2019-05-26T04:20:30.484Z,12.30
2019-05-26T04:23:00.674Z,12.50
2019-05-26T04:25:30.914Z,12.70
2019-05-26T04:28:01.168Z,12.50
2019-05-26T04:30:31.337Z,12.50
2019-05-26T04:33:01.447Z,12.60
2019-05-26T04:35:31.749Z,12.70
2019-05-26T04:38:02.693Z,12.80
2019-05-26T04:40:33.102Z,12.80
2019-05-26T04:43:03.264Z,12.70
2019-05-26T04:45:33.415Z,12.50
2019-05-26T04:48:03.639Z,12.50
2019-05-26T04:50:33.850Z,12.50
2019-05-26T04:53:06.587Z,12.50
2019-05-26T04:55:35.942Z,12.50
2019-05-26T04:58:06.570Z,12.70
2019-05-26T05:00:36.900Z,12.80
2019-05-26T05:03:07.091Z,12.80
2019-05-26T05:05:37.332Z,12.80
2019-05-26T05:08:07.716Z,12.90
2019-05-26T05:10:42.389Z,12.80
2019-05-26T05:13:10.563Z,12.80
2019-05-26T05:15:45.667Z,12.80
2019-05-26T05:18:15.582Z,13.00
2019-05-26T05:20:45.435Z,13.20
2019-05-26T05:23:15.288Z,13.40
2019-05-26T05:25:45.618Z,13.70
2019-05-26T05:28:15.546Z,14.00
2019-05-26T05:30:45.401Z,14.20
2019-05-26T05:33:15.260Z,14.40
2019-05-26T05:35:45.103Z,14.70
2019-05-26T05:38:15.044Z,14.80
2019-05-26T05:40:58.968Z,14.90
2019-05-26T05:43:17.226Z,15.00
2019-05-26T05:45:47.058Z,15.10
2019-05-26T05:48:16.911Z,15.10
2019-05-26T05:50:46.741Z,15.10
2019-05-26T05:53:16.578Z,15.00
2019-05-26T05:55:46.434Z,14.90
2019-05-26T05:58:16.375Z,15.10
2019-05-26T06:00:46.219Z,15.40
2019-05-26T06:03:18.551Z,15.40
2019-05-26T06:05:47.700Z,15.40
2019-05-26T06:08:17.600Z,15.60
2019-05-26T06:10:47.531Z,15.70
2019-05-26T06:13:17.426Z,15.60
2019-05-26T06:15:47.256Z,15.50
2019-05-26T06:18:17.123Z,15.50
2019-05-26T06:20:47.614Z,15.70
2019-05-26T06:23:17.463Z,15.50
2019-05-26T06:25:47.325Z,15.60
2019-05-26T06:28:17.242Z,16.00
2019-05-26T06:30:47.065Z,16.10
2019-05-26T06:33:17.319Z,16.00
2019-05-26T06:35:47.730Z,16.00
2019-05-26T06:38:18.162Z,15.90
2019-05-26T06:40:48.348Z,16.00
2019-05-26T06:43:18.598Z,16.30
2019-05-26T06:45:48.932Z,16.70
2019-05-26T06:48:19.158Z,16.50
2019-05-26T06:50:49.250Z,16.30
2019-05-26T06:53:19.602Z,16.10
2019-05-26T06:55:49.788Z,16.00
2019-05-26T06:58:21.113Z,16.10
2019-05-26T07:00:51.468Z,16.30
2019-05-26T07:03:21.734Z,16.10
2019-05-26T07:05:51.899Z,16.20
2019-05-26T07:08:22.203Z,16.30
2019-05-26T07:10:52.756Z,16.30
2019-05-26T07:13:23.099Z,16.30
2019-05-26T07:15:53.263Z,16.30
2019-05-26T07:18:23.522Z,16.30
2019-05-26T07:20:53.711Z,16.30
2019-05-26T07:23:23.968Z,16.30
2019-05-26T07:25:54.083Z,16.40
2019-05-26T07:28:24.266Z,16.70
2019-05-26T07:30:54.533Z,17.00
2019-05-26T07:33:24.862Z,17.10
2019-05-26T07:35:55.020Z,17.20
2019-05-26T07:38:25.480Z,17.30
2019-05-26T07:40:55.814Z,17.60
2019-05-26T07:43:28.173Z,18.00
2019-05-26T07:46:00.699Z,18.30
2019-05-26T07:48:34.844Z,18.70
2019-05-26T07:51:03.060Z,18.90
2019-05-26T07:53:33.374Z,18.40
2019-05-26T07:56:03.821Z,18.20
2019-05-26T07:58:35.083Z,18.10
2019-05-26T08:01:05.474Z,18.00
2019-05-26T08:03:35.916Z,18.30
2019-05-26T08:06:06.136Z,18.40
2019-05-26T08:08:36.699Z,18.70
2019-05-26T08:11:06.842Z,18.80
2019-05-26T08:13:37.403Z,18.90
2019-05-26T08:16:07.618Z,18.90
2019-05-26T08:18:38.909Z,19.30
2019-05-26T08:21:09.313Z,18.70
2019-05-26T08:23:39.531Z,18.60
2019-05-26T08:26:09.859Z,18.80
2019-05-26T08:28:40.283Z,18.90
2019-05-26T08:31:13.361Z,19.40
2019-05-26T08:33:42.578Z,19.30
2019-05-26T08:36:12.927Z,19.80
2019-05-26T08:38:44.675Z,19.90
2019-05-26T08:41:16.078Z,19.90
2019-05-26T08:43:47.088Z,19.90
2019-05-26T08:46:18.741Z,20.00
2019-05-26T08:48:51.558Z,20.00
2019-05-26T08:51:23.816Z,20.10
2019-05-26T08:53:53.837Z,20.10
2019-05-26T08:56:24.051Z,19.90
2019-05-26T08:58:54.478Z,19.40
2019-05-26T09:01:24.602Z,19.20
2019-05-26T09:03:54.761Z,19.20
2019-05-26T09:06:25.220Z,18.80
2019-05-26T09:08:55.508Z,18.40
2019-05-26T09:11:26.581Z,18.80
2019-05-26T09:13:56.626Z,18.90
2019-05-26T09:16:28.389Z,18.80
2019-05-26T09:18:58.957Z,18.50
2019-05-26T09:21:29.131Z,18.60
2019-05-26T09:23:59.478Z,18.60
2019-05-26T09:26:30.630Z,18.60
2019-05-26T09:29:02.167Z,18.70
2019-05-26T09:31:34.271Z,18.90
2019-05-26T09:34:04.423Z,19.00
2019-05-26T09:36:34.593Z,19.20
2019-05-26T09:39:06.646Z,19.20
2019-05-26T09:41:37.002Z,19.70
2019-05-26T09:44:07.523Z,20.00
2019-05-26T09:46:37.802Z,20.30
2019-05-26T09:49:09.190Z,19.80
2019-05-26T09:51:40.369Z,20.10
2019-05-26T09:54:12.741Z,20.50
2019-05-26T09:56:42.821Z,20.40
2019-05-26T09:59:13.399Z,20.10
2019-05-26T10:01:44.632Z,19.40
2019-05-26T10:04:15.153Z,19.40
2019-05-26T10:06:45.645Z,19.20
2019-05-26T10:09:16.114Z,19.10
2019-05-26T10:11:46.761Z,19.00
2019-05-26T10:14:16.746Z,18.90
2019-05-26T10:16:47.194Z,18.90
2019-05-26T10:19:17.342Z,19.30
2019-05-26T10:21:47.258Z,19.30
2019-05-26T10:24:17.085Z,19.20
2019-05-26T10:26:46.962Z,19.30
2019-05-26T10:29:16.897Z,19.50
2019-05-26T10:31:46.767Z,19.40
2019-05-26T10:34:16.679Z,19.30
2019-05-26T10:36:46.562Z,19.40
2019-05-26T10:39:17.266Z,19.40
2019-05-26T10:41:47.767Z,19.60
2019-05-26T10:44:17.631Z,20.30
2019-05-26T10:46:47.525Z,20.50
2019-05-26T10:49:17.448Z,20.50
2019-05-26T10:51:47.357Z,20.50
2019-05-26T10:54:17.206Z,20.70
2019-05-26T10:56:47.034Z,21.30
2019-05-26T10:59:17.034Z,21.60
2019-05-26T11:01:46.851Z,21.10
2019-05-26T11:04:16.707Z,20.40
2019-05-26T11:06:46.538Z,20.20
2019-05-26T11:09:16.710Z,19.90
2019-05-26T11:11:46.643Z,19.90
2019-05-26T11:14:16.513Z,19.90
2019-05-26T11:16:46.339Z,20.50
2019-05-26T11:19:16.244Z,20.70
2019-05-26T11:21:47.671Z,20.70
2019-05-26T11:24:18.660Z,20.80
2019-05-26T11:26:49.128Z,20.50
2019-05-26T11:29:19.760Z,20.40
2019-05-26T11:31:50.145Z,20.40
2019-05-26T11:34:19.999Z,20.60
2019-05-26T11:36:49.954Z,20.70
2019-05-26T11:39:19.834Z,20.80
2019-05-26T11:41:54.937Z,20.80
2019-05-26T11:44:22.119Z,21.10
2019-05-26T11:46:51.983Z,21.20
2019-05-26T11:49:21.898Z,21.40
2019-05-26T11:51:51.845Z,21.00
2019-05-26T11:54:21.707Z,20.80
2019-05-26T11:56:51.590Z,21.70
2019-05-26T11:59:21.534Z,21.60
2019-05-26T12:01:51.368Z,21.60
2019-05-26T12:04:21.210Z,21.80
2019-05-26T12:06:51.047Z,22.50
2019-05-26T12:09:20.957Z,22.70
2019-05-26T12:11:50.830Z,22.50
2019-05-26T12:14:33.671Z,22.40
2019-05-26T12:16:52.188Z,22.10
2019-05-26T12:19:22.055Z,22.00
2019-05-26T12:21:51.927Z,21.40
2019-05-26T12:24:21.867Z,21.10
2019-05-26T12:26:51.695Z,21.00
2019-05-26T12:29:21.605Z,21.00
2019-05-26T12:31:51.426Z,20.90
2019-05-26T12:34:21.262Z,20.60
2019-05-26T12:36:51.097Z,20.60
2019-05-26T12:39:20.966Z,20.70
2019-05-26T12:41:50.880Z,21.00
2019-05-26T12:44:22.816Z,21.20
2019-05-26T12:46:52.705Z,21.40
2019-05-26T12:49:22.838Z,21.40
2019-05-26T12:51:55.893Z,21.30
2019-05-26T12:54:26.879Z,21.20
2019-05-26T12:56:56.750Z,21.40
2019-05-26T12:59:26.640Z,21.40
2019-05-26T13:01:56.868Z,21.20
2019-05-26T13:04:26.694Z,21.20
2019-05-26T13:06:56.555Z,21.40
2019-05-26T13:09:26.690Z,21.00
2019-05-26T13:11:56.543Z,21.10
2019-05-26T13:14:26.472Z,20.90
2019-05-26T13:16:56.446Z,20.90
2019-05-26T13:19:26.291Z,20.60
2019-05-26T13:21:56.150Z,20.30
2019-05-26T13:24:25.986Z,20.20
2019-05-26T13:26:55.843Z,20.30
2019-05-26T13:29:26.274Z,20.40
2019-05-26T13:31:56.242Z,20.60
2019-05-26T13:34:26.104Z,20.70
2019-05-26T13:36:56.047Z,20.60
2019-05-26T13:39:25.982Z,20.30
2019-05-26T13:41:55.878Z,20.10
2019-05-26T13:44:25.769Z,20.00
2019-05-26T13:46:55.706Z,19.90
2019-05-26T13:49:25.642Z,19.80
2019-05-26T13:51:55.604Z,19.70
2019-05-26T13:54:25.552Z,19.60
2019-05-26T13:56:55.433Z,19.60
2019-05-26T13:59:25.291Z,19.60
2019-05-26T14:01:55.159Z,19.60
2019-05-26T14:04:25.004Z,19.50
2019-05-26T14:06:54.841Z,19.60
2019-05-26T14:09:24.750Z,19.60
2019-05-26T14:11:55.084Z,19.50
2019-05-26T14:14:24.929Z,19.60
2019-05-26T14:16:55.279Z,20.00
2019-05-26T14:19:28.645Z,20.30
2019-05-26T14:21:58.475Z,20.40
2019-05-26T14:24:28.338Z,20.70
2019-05-26T14:26:58.198Z,20.90
2019-05-26T14:29:28.706Z,21.60
2019-05-26T14:31:58.526Z,22.00
2019-05-26T14:34:28.387Z,21.70
2019-05-26T14:36:58.218Z,21.50
2019-05-26T14:39:28.147Z,21.30
2019-05-26T14:41:58.483Z,21.30
2019-05-26T14:44:28.477Z,20.90
2019-05-26T14:46:58.338Z,20.60
2019-05-26T14:49:28.203Z,20.40
2019-05-26T14:51:58.163Z,20.30
2019-05-26T14:54:28.012Z,20.20
2019-05-26T14:56:57.851Z,20.50
2019-05-26T14:59:27.753Z,20.70
2019-05-26T15:01:57.667Z,20.80
2019-05-26T15:04:30.939Z,20.70
2019-05-26T15:06:59.189Z,20.60
2019-05-26T15:09:29.054Z,20.40
2019-05-26T15:11:58.902Z,20.40
2019-05-26T15:14:28.758Z,20.40
2019-05-26T15:16:58.629Z,20.60
2019-05-26T15:19:28.511Z,20.80
2019-05-26T15:21:58.346Z,20.90
2019-05-26T15:24:28.215Z,20.90
2019-05-26T15:26:58.085Z,21.00
2019-05-26T15:29:27.959Z,21.00
2019-05-26T15:31:57.861Z,21.20
2019-05-26T15:34:27.675Z,21.10
2019-05-26T15:36:57.502Z,21.10
2019-05-26T15:39:27.414Z,21.00
2019-05-26T15:41:57.378Z,21.00
2019-05-26T15:44:27.296Z,21.10
2019-05-26T15:46:58.781Z,21.20
2019-05-26T15:49:28.715Z,21.20
2019-05-26T15:51:58.654Z,21.10
2019-05-26T15:54:28.492Z,20.70
2019-05-26T15:56:58.335Z,20.50
2019-05-26T15:59:28.259Z,20.50
2019-05-26T16:01:58.482Z,20.30
2019-05-26T16:04:28.398Z,20.30
2019-05-26T16:06:58.258Z,20.10
2019-05-26T16:09:28.134Z,20.10
2019-05-26T16:11:58.097Z,20.20
2019-05-26T16:14:27.942Z,20.10
2019-05-26T16:16:58.576Z,20.10
2019-05-26T16:19:28.515Z,20.00
2019-05-26T16:21:58.358Z,20.00
2019-05-26T16:24:28.194Z,19.80
2019-05-26T16:27:00.586Z,19.80
2019-05-26T16:29:29.583Z,19.80
2019-05-26T16:31:59.418Z,19.90
2019-05-26T16:34:29.275Z,20.00
2019-05-26T16:36:59.125Z,19.90
2019-05-26T16:39:36.840Z,19.90
2019-05-26T16:42:00.635Z,19.90
2019-05-26T16:44:30.578Z,19.80
2019-05-26T16:47:00.489Z,19.70
2019-05-26T16:49:30.331Z,19.60
2019-05-26T16:52:00.167Z,19.60
2019-05-26T16:54:30.015Z,19.80
2019-05-26T16:56:59.874Z,19.70
2019-05-26T16:59:29.842Z,19.80
2019-05-26T17:01:59.828Z,19.90
2019-05-26T17:04:29.671Z,19.90
2019-05-26T17:06:59.534Z,20.00
2019-05-26T17:09:29.464Z,20.10
2019-05-26T17:11:59.317Z,20.20
2019-05-26T17:14:29.174Z,20.20
2019-05-26T17:17:13.670Z,20.10
2019-05-26T17:19:30.586Z,20.10
2019-05-26T17:22:00.422Z,19.90
2019-05-26T17:24:30.263Z,19.90
2019-05-26T17:27:00.130Z,19.90
2019-05-26T17:29:29.973Z,19.80
2019-05-26T17:31:59.846Z,19.70
2019-05-26T17:34:29.719Z,19.70
2019-05-26T17:36:59.555Z,19.50
2019-05-26T17:39:29.463Z,19.40
2019-05-26T17:41:59.318Z,19.40
2019-05-26T17:44:29.607Z,19.30
2019-05-26T17:46:59.954Z,19.30
2019-05-26T17:49:29.875Z,19.20
2019-05-26T17:51:59.706Z,19.20
2019-05-26T17:54:29.552Z,19.10
2019-05-26T17:56:59.382Z,18.90
2019-05-26T17:59:29.294Z,18.70
2019-05-26T18:01:59.160Z,18.50
2019-05-26T18:04:29.002Z,18.40
2019-05-26T18:06:59.193Z,18.40
2019-05-26T18:09:43.309Z,18.50
2019-05-26T18:12:00.592Z,18.30
2019-05-26T18:14:30.441Z,18.30
2019-05-26T18:17:00.275Z,18.20
2019-05-26T18:19:30.363Z,18.20
2019-05-26T18:22:00.326Z,18.20
2019-05-26T18:24:30.167Z,18.20
2019-05-26T18:26:59.997Z,18.20
2019-05-26T18:29:29.841Z,18.30
2019-05-26T18:31:59.694Z,18.40
2019-05-26T18:34:29.817Z,18.40
2019-05-26T18:36:59.686Z,18.30
2019-05-26T18:39:29.576Z,18.30
2019-05-26T18:41:59.433Z,18.30
2019-05-26T18:44:29.381Z,18.30
2019-05-26T18:46:59.279Z,18.30
2019-05-26T18:49:30.146Z,18.30
2019-05-26T18:51:59.998Z,18.30
2019-05-26T18:54:29.858Z,18.30
2019-05-26T18:56:59.694Z,18.40
2019-05-26T18:59:29.606Z,18.40
2019-05-26T19:01:59.446Z,18.40
2019-05-26T19:04:29.281Z,18.50
2019-05-26T19:06:59.140Z,18.60
2019-05-26T19:09:29.062Z,18.50
2019-05-26T19:11:58.903Z,18.50
2019-05-26T19:14:28.786Z,18.40
2019-05-26T19:16:58.730Z,18.30
2019-05-26T19:19:28.722Z,18.20
2019-05-26T19:21:58.580Z,18.00
2019-05-26T19:24:29.395Z,17.80
2019-05-26T19:26:59.281Z,17.90
2019-05-26T19:29:29.305Z,17.70
2019-05-26T19:31:59.150Z,17.70
2019-05-26T19:34:30.936Z,17.60
2019-05-26T19:37:00.515Z,17.40
2019-05-26T19:39:30.375Z,17.50
2019-05-26T19:42:00.203Z,17.50
2019-05-26T19:44:30.169Z,17.60
2019-05-26T19:47:00.131Z,17.60
2019-05-26T19:49:29.982Z,17.70
2019-05-26T19:51:59.866Z,17.60
2019-05-26T19:54:29.715Z,17.40
2019-05-26T19:56:59.690Z,17.40
2019-05-26T19:59:29.610Z,17.30
2019-05-26T20:02:16.902Z,17.40
2019-05-26T20:04:30.950Z,17.40
2019-05-26T20:07:00.820Z,17.20
2019-05-26T20:09:30.679Z,17.30
2019-05-26T20:12:00.501Z,17.40
2019-05-26T20:14:30.377Z,17.50
2019-05-26T20:17:00.219Z,17.40
2019-05-26T20:19:30.079Z,17.40
2019-05-26T20:21:59.946Z,17.40
2019-05-26T20:24:29.783Z,17.50
2019-05-26T20:26:59.644Z,17.40
2019-05-26T20:29:29.503Z,17.20
2019-05-26T20:31:59.355Z,17.00
2019-05-26T20:34:29.214Z,17.10
2019-05-26T20:36:59.043Z,17.30
2019-05-26T20:39:29.505Z,17.40
2019-05-26T20:41:59.712Z,17.40
2019-05-26T20:44:35.810Z,17.50
2019-05-26T20:47:05.794Z,17.50
2019-05-26T20:49:45.242Z,17.40
2019-05-26T20:52:09.266Z,17.30
2019-05-26T20:54:39.112Z,17.50
2019-05-26T20:57:08.961Z,17.40
2019-05-26T20:59:38.862Z,17.30
2019-05-26T21:02:08.822Z,17.20
2019-05-26T21:04:38.658Z,17.10
2019-05-26T21:07:08.620Z,17.10
2019-05-26T21:09:38.488Z,17.30
2019-05-26T21:12:08.326Z,17.30
2019-05-26T21:14:38.159Z,17.30
2019-05-26T21:17:08.107Z,17.20
2019-05-26T21:19:37.987Z,17.20
2019-05-26T21:22:07.835Z,17.10
2019-05-26T21:24:37.703Z,17.10
2019-05-26T21:27:07.642Z,16.90
2019-05-26T21:29:37.474Z,16.90
2019-05-26T21:32:07.307Z,16.90
2019-05-26T21:34:37.169Z,16.90
2019-05-26T21:37:07.120Z,16.90
2019-05-26T21:39:36.952Z,16.90
2019-05-26T21:42:07.094Z,16.80
2019-05-26T21:44:36.965Z,16.70
2019-05-26T21:47:06.880Z,16.80
2019-05-26T21:49:37.918Z,16.80
2019-05-26T21:52:07.858Z,16.80
2019-05-26T21:54:41.110Z,16.80
2019-05-26T21:57:09.406Z,16.70
2019-05-26T21:59:39.242Z,16.60
2019-05-26T22:02:09.275Z,16.60
2019-05-26T22:04:39.323Z,16.60
2019-05-26T22:07:09.191Z,16.40
2019-05-26T22:09:40.002Z,16.40
2019-05-26T22:12:09.835Z,16.50
2019-05-26T22:14:39.697Z,16.60
2019-05-26T22:17:09.742Z,16.60
2019-05-26T22:19:39.607Z,16.50
2019-05-26T22:22:09.519Z,16.60
2019-05-26T22:24:39.355Z,16.40
2019-05-26T22:27:09.223Z,16.30
2019-05-26T22:29:39.066Z,16.40
2019-05-26T22:32:08.930Z,16.60
2019-05-26T22:34:38.787Z,16.50
2019-05-26T22:37:08.623Z,16.50
2019-05-26T22:39:38.470Z,16.40
2019-05-26T22:42:08.306Z,16.40
2019-05-26T22:44:38.147Z,16.40
2019-05-26T22:47:08.062Z,16.40
2019-05-26T22:49:38.094Z,16.60
2019-05-26T22:52:08.042Z,16.50
2019-05-26T22:54:37.890Z,16.70
2019-05-26T22:57:07.785Z,16.70
2019-05-26T22:59:37.606Z,16.80
2019-05-26T23:02:07.450Z,16.90
2019-05-26T23:04:37.411Z,17.10
2019-05-26T23:07:07.247Z,17.00
2019-05-26T23:09:37.160Z,17.20
2019-05-26T23:12:06.982Z,17.10
2019-05-26T23:14:37.906Z,17.00
2019-05-26T23:17:07.827Z,17.00
2019-05-26T23:19:37.663Z,17.10
2019-05-26T23:22:08.086Z,17.10
2019-05-26T23:24:37.925Z,17.20
2019-05-26T23:27:07.907Z,17.20
2019-05-26T23:29:37.753Z,17.10
2019-05-26T23:32:07.620Z,17.10
2019-05-26T23:34:37.479Z,17.20
2019-05-26T23:37:07.429Z,17.40
2019-05-26T23:39:37.259Z,17.40
2019-05-26T23:42:07.124Z,17.40
2019-05-26T23:44:36.966Z,17.20
2019-05-26T23:47:07.667Z,17.00
2019-05-26T23:49:38.378Z,17.00
2019-05-26T23:52:08.250Z,17.00
2019-05-26T23:54:38.078Z,17.10
2019-05-26T23:57:07.931Z,17.00
2019-05-26T23:59:37.802Z,17.00
